Harrisonburg, VA

10:23 PM EDT on September 21, 2014 (GMT -0400)
Orange County | Change Station
CLOSE
Current Station
Airport
Location: Orange,
Elevation: 466 ft
Nearby Weather Stations

Elev 466 ft 38.25 °N, 78.05 °W | Updated 8 minutes ago

Partly Cloudy
Partly Cloudy
77 °F
Feels Like 77 °F
N
6
Wind Variable Wind from SW

Today
High -- | Low -- °F
--% Chance of Precip.
Yesterday
High -- | Low -- °F
Precip. -- in
7:02 AM 7:14 PM
Waning Crescent, 4% visible
Pressure 29.76 in
Visibility 10.0 miles
Clouds Overcast 10000 ft
Dew Point 61 °F
Humidity 57%
Rainfall 0.00 in
Snow Depth Not available.
UV 0 out of 12
Pollen 4.20 out of 12
Air Quality Not available.
Flu Activity Not available.
METAR KOMH 220215Z AUTO 23005KT 10SM OVC100 25/16 A2976 RMK AO2

More Conditions Fewer Conditions

Pressure 29.76 in
Visibility 10.0 miles
Clouds Overcast 10000 ft
Dew Point 61 °F
Humidity 57%
Rainfall 0.00 in
Snow Depth Not available.
UV 0 out of 12
Pollen 4.20 out of 12
Air Quality Not available.
Flu Activity Not available.
METAR KOMH 220215Z AUTO 23005KT 10SM OVC100 25/16 A2976 RMK AO2

More Conditions Fewer Conditions

10-Day Weather Forecast

Almanac

Astronomy

Sep. 21, 2014 Rise Set
Actual Time 7:02 AM EDT 7:14 PM EDT
Civil Twilight 6:35 AM EDT 7:40 PM EDT
Nautical Twilight 6:04 AM EDT 8:11 PM EDT
Astronomical Twilight 5:33 AM EDT 8:42 PM EDT
Moon 4:35 AM EDT (9/21) 5:48 PM EDT (9/21)
Length of Visible Light 13h 04m
Length of Day
12h 11m
Tomorrow will be 2m 29s shorter.
Waning Crescent, 4% of the Moon is Illuminated
Today
Waning Crescent
Sep 24
New
Oct 1
First Quarter
Oct 8
Full
Oct 15
Last Quarter

Today's Extremes

State Highs State Lows

Community

WunderPhotos

Upload Photos

1,755,364 photos uploaded!

WunderBlogs® & News

Nearby

Snow Depth

Station Depth Elevation
No new snow has been reported.

Earthquake Activity

City Distance Mag. Time & Date
No recent earthquake activity has been reported nearby.
Minimum magnitude displayed is 2.5.

Coastal Water Temperatures

Place Temperature
No Stations Reporting

Nearby Weather Stations